<?xml version="1.0" encoding="UTF-8" standalone="no" ?>
<gpx xmlns="http://www.topografix.com/GPX/1/1" xmlns:xsi="http://www.w3.org/2001/XMLSchema-instance" xsi:schemaLocation="http://www.topografix.com/GPX/1/1 http://www.topografix.com/GPX/1/1/gpx.xsd" version="1.1" creator="VisuGPX - https://www.visugpx.com">
  <metadata>
    <name>Pouvourville - 24 avril 2011</name>
    <desc><![CDATA[Pouvourville - 24 avril 2011]]></desc>
  </metadata>
  <trk>
    <name><![CDATA[ACTIVE LOG 001-5]]></name>
    <trkseg>
      <trkpt lat="43.54967" lon="1.44979">
        <ele>226.527832</ele>
        <time>2011-04-24T10:47:57Z</time>
      </trkpt>
      <trkpt lat="43.54967" lon="1.44979">
        <ele>225.566528</ele>
        <time>2011-04-24T10:47:58Z</time>
      </trkpt>
      <trkpt lat="43.54966" lon="1.4498">
        <ele>226.047119</ele>
        <time>2011-04-24T10:48:06Z</time>
      </trkpt>
      <trkpt lat="43.54981" lon="1.44935">
        <ele>225.566528</ele>
        <time>2011-04-24T10:48:15Z</time>
      </trkpt>
      <trkpt lat="43.55002" lon="1.44866">
        <ele>225.085938</ele>
        <time>2011-04-24T10:48:24Z</time>
      </trkpt>
      <trkpt lat="43.55042" lon="1.44748">
        <ele>221.721191</ele>
        <time>2011-04-24T10:48:37Z</time>
      </trkpt>
      <trkpt lat="43.55072" lon="1.44742">
        <ele>221.240601</ele>
        <time>2011-04-24T10:48:43Z</time>
      </trkpt>
      <trkpt lat="43.55086" lon="1.4475">
        <ele>222.201782</ele>
        <time>2011-04-24T10:48:46Z</time>
      </trkpt>
      <trkpt lat="43.5512" lon="1.44783">
        <ele>222.682495</ele>
        <time>2011-04-24T10:48:54Z</time>
      </trkpt>
      <trkpt lat="43.55144" lon="1.44805">
        <ele>219.798584</ele>
        <time>2011-04-24T10:49:00Z</time>
      </trkpt>
      <trkpt lat="43.55153" lon="1.44817">
        <ele>222.682495</ele>
        <time>2011-04-24T10:49:03Z</time>
      </trkpt>
      <trkpt lat="43.55159" lon="1.44824">
        <ele>221.240601</ele>
        <time>2011-04-24T10:49:05Z</time>
      </trkpt>
      <trkpt lat="43.55182" lon="1.44846">
        <ele>219.317993</ele>
        <time>2011-04-24T10:49:11Z</time>
      </trkpt>
      <trkpt lat="43.55208" lon="1.44868">
        <ele>220.279175</ele>
        <time>2011-04-24T10:49:16Z</time>
      </trkpt>
      <trkpt lat="43.5524" lon="1.44908">
        <ele>217.395386</ele>
        <time>2011-04-24T10:49:22Z</time>
      </trkpt>
      <trkpt lat="43.55267" lon="1.44952">
        <ele>214.03064</ele>
        <time>2011-04-24T10:49:27Z</time>
      </trkpt>
      <trkpt lat="43.55287" lon="1.44993">
        <ele>210.185425</ele>
        <time>2011-04-24T10:49:32Z</time>
      </trkpt>
      <trkpt lat="43.55296" lon="1.45013">
        <ele>208.743408</ele>
        <time>2011-04-24T10:49:36Z</time>
      </trkpt>
      <trkpt lat="43.55297" lon="1.45017">
        <ele>207.782104</ele>
        <time>2011-04-24T10:49:38Z</time>
      </trkpt>
      <trkpt lat="43.55295" lon="1.45017">
        <ele>207.782104</ele>
        <time>2011-04-24T10:49:50Z</time>
      </trkpt>
      <trkpt lat="43.55293" lon="1.45015">
        <ele>207.301392</ele>
        <time>2011-04-24T10:50:10Z</time>
      </trkpt>
      <trkpt lat="43.55294" lon="1.45016">
        <ele>208.262817</ele>
        <time>2011-04-24T10:51:25Z</time>
      </trkpt>
      <trkpt lat="43.55295" lon="1.45019">
        <ele>207.782104</ele>
        <time>2011-04-24T10:51:39Z</time>
      </trkpt>
      <trkpt lat="43.55297" lon="1.4502">
        <ele>207.782104</ele>
        <time>2011-04-24T10:51:41Z</time>
      </trkpt>
      <trkpt lat="43.55303" lon="1.45029">
        <ele>208.743408</ele>
        <time>2011-04-24T10:51:45Z</time>
      </trkpt>
      <trkpt lat="43.55339" lon="1.45122">
        <ele>205.859497</ele>
        <time>2011-04-24T10:51:58Z</time>
      </trkpt>
      <trkpt lat="43.55389" lon="1.45192">
        <ele>202.494873</ele>
        <time>2011-04-24T10:52:08Z</time>
      </trkpt>
      <trkpt lat="43.554" lon="1.45207">
        <ele>202.494873</ele>
        <time>2011-04-24T10:52:10Z</time>
      </trkpt>
      <trkpt lat="43.55416" lon="1.45243">
        <ele>201.533569</ele>
        <time>2011-04-24T10:52:14Z</time>
      </trkpt>
      <trkpt lat="43.55428" lon="1.45307">
        <ele>197.688232</ele>
        <time>2011-04-24T10:52:20Z</time>
      </trkpt>
      <trkpt lat="43.55455" lon="1.45409">
        <ele>194.32373</ele>
        <time>2011-04-24T10:52:29Z</time>
      </trkpt>
      <trkpt lat="43.55479" lon="1.45458">
        <ele>192.401123</ele>
        <time>2011-04-24T10:52:34Z</time>
      </trkpt>
      <trkpt lat="43.5552" lon="1.45511">
        <ele>188.555786</ele>
        <time>2011-04-24T10:52:41Z</time>
      </trkpt>
      <trkpt lat="43.55531" lon="1.45528">
        <ele>187.59436</ele>
        <time>2011-04-24T10:52:43Z</time>
      </trkpt>
      <trkpt lat="43.55571" lon="1.45589">
        <ele>185.671753</ele>
        <time>2011-04-24T10:52:50Z</time>
      </trkpt>
      <trkpt lat="43.55624" lon="1.45629">
        <ele>183.268433</ele>
        <time>2011-04-24T10:52:57Z</time>
      </trkpt>
      <trkpt lat="43.55649" lon="1.45631">
        <ele>181.826416</ele>
        <time>2011-04-24T10:53:00Z</time>
      </trkpt>
      <trkpt lat="43.55725" lon="1.45614">
        <ele>179.423218</ele>
        <time>2011-04-24T10:53:09Z</time>
      </trkpt>
      <trkpt lat="43.55767" lon="1.45613">
        <ele>177.981201</ele>
        <time>2011-04-24T10:53:14Z</time>
      </trkpt>
      <trkpt lat="43.55782" lon="1.4562">
        <ele>177.02002</ele>
        <time>2011-04-24T10:53:16Z</time>
      </trkpt>
      <trkpt lat="43.55816" lon="1.45649">
        <ele>175.577881</ele>
        <time>2011-04-24T10:53:21Z</time>
      </trkpt>
      <trkpt lat="43.55881" lon="1.45677">
        <ele>174.616577</ele>
        <time>2011-04-24T10:53:30Z</time>
      </trkpt>
      <trkpt lat="43.55894" lon="1.45685">
        <ele>174.135864</ele>
        <time>2011-04-24T10:53:32Z</time>
      </trkpt>
      <trkpt lat="43.5592" lon="1.45709">
        <ele>172.213257</ele>
        <time>2011-04-24T10:53:36Z</time>
      </trkpt>
      <trkpt lat="43.5594" lon="1.45724">
        <ele>171.732666</ele>
        <time>2011-04-24T10:53:39Z</time>
      </trkpt>
      <trkpt lat="43.55955" lon="1.45758">
        <ele>170.290649</ele>
        <time>2011-04-24T10:53:45Z</time>
      </trkpt>
      <trkpt lat="43.55948" lon="1.45761">
        <ele>170.771362</ele>
        <time>2011-04-24T10:53:47Z</time>
      </trkpt>
      <trkpt lat="43.55915" lon="1.45763">
        <ele>172.69397</ele>
        <time>2011-04-24T10:53:55Z</time>
      </trkpt>
      <trkpt lat="43.5589" lon="1.45757">
        <ele>175.09729</ele>
        <time>2011-04-24T10:54:01Z</time>
      </trkpt>
      <trkpt lat="43.55854" lon="1.45742">
        <ele>178.461914</ele>
        <time>2011-04-24T10:54:11Z</time>
      </trkpt>
      <trkpt lat="43.5582" lon="1.45733">
        <ele>181.826416</ele>
        <time>2011-04-24T10:54:23Z</time>
      </trkpt>
      <trkpt lat="43.55784" lon="1.45721">
        <ele>185.191162</ele>
        <time>2011-04-24T10:54:34Z</time>
      </trkpt>
      <trkpt lat="43.55754" lon="1.45709">
        <ele>188.075073</ele>
        <time>2011-04-24T10:54:45Z</time>
      </trkpt>
      <trkpt lat="43.55723" lon="1.457">
        <ele>191.439575</ele>
        <time>2011-04-24T10:54:56Z</time>
      </trkpt>
      <trkpt lat="43.55692" lon="1.45693">
        <ele>193.362305</ele>
        <time>2011-04-24T10:55:07Z</time>
      </trkpt>
      <trkpt lat="43.55641" lon="1.45695">
        <ele>195.765625</ele>
        <time>2011-04-24T10:55:21Z</time>
      </trkpt>
      <trkpt lat="43.55628" lon="1.45693">
        <ele>194.32373</ele>
        <time>2011-04-24T10:55:24Z</time>
      </trkpt>
      <trkpt lat="43.55568" lon="1.45688">
        <ele>197.20752</ele>
        <time>2011-04-24T10:55:38Z</time>
      </trkpt>
      <trkpt lat="43.55514" lon="1.45684">
        <ele>197.20752</ele>
        <time>2011-04-24T10:55:50Z</time>
      </trkpt>
      <trkpt lat="43.55495" lon="1.45671">
        <ele>197.688232</ele>
        <time>2011-04-24T10:55:55Z</time>
      </trkpt>
      <trkpt lat="43.55442" lon="1.45656">
        <ele>201.533569</ele>
        <time>2011-04-24T10:56:08Z</time>
      </trkpt>
      <trkpt lat="43.55413" lon="1.45652">
        <ele>204.41748</ele>
        <time>2011-04-24T10:56:16Z</time>
      </trkpt>
      <trkpt lat="43.55383" lon="1.45651">
        <ele>207.782104</ele>
        <time>2011-04-24T10:56:26Z</time>
      </trkpt>
      <trkpt lat="43.5535" lon="1.45656">
        <ele>211.146729</ele>
        <time>2011-04-24T10:56:37Z</time>
      </trkpt>
      <trkpt lat="43.55319" lon="1.45666">
        <ele>214.03064</ele>
        <time>2011-04-24T10:56:47Z</time>
      </trkpt>
      <trkpt lat="43.55229" lon="1.45704">
        <ele>216.914673</ele>
        <time>2011-04-24T10:57:12Z</time>
      </trkpt>
      <trkpt lat="43.55119" lon="1.45729">
        <ele>219.798584</ele>
        <time>2011-04-24T10:57:39Z</time>
      </trkpt>
      <trkpt lat="43.5502" lon="1.45744">
        <ele>223.163208</ele>
        <time>2011-04-24T10:58:01Z</time>
      </trkpt>
      <trkpt lat="43.54981" lon="1.45735">
        <ele>226.047119</ele>
        <time>2011-04-24T10:58:12Z</time>
      </trkpt>
      <trkpt lat="43.54957" lon="1.45723">
        <ele>228.450439</ele>
        <time>2011-04-24T10:58:18Z</time>
      </trkpt>
      <trkpt lat="43.54953" lon="1.4572">
        <ele>228.450439</ele>
        <time>2011-04-24T10:58:19Z</time>
      </trkpt>
      <trkpt lat="43.5494" lon="1.45705">
        <ele>229.892334</ele>
        <time>2011-04-24T10:58:23Z</time>
      </trkpt>
      <trkpt lat="43.54904" lon="1.45629">
        <ele>231.814941</ele>
        <time>2011-04-24T10:58:38Z</time>
      </trkpt>
      <trkpt lat="43.54894" lon="1.45606">
        <ele>232.295776</ele>
        <time>2011-04-24T10:58:42Z</time>
      </trkpt>
      <trkpt lat="43.54873" lon="1.45562">
        <ele>232.776489</ele>
        <time>2011-04-24T10:58:50Z</time>
      </trkpt>
      <trkpt lat="43.54868" lon="1.45551">
        <ele>233.25708</ele>
        <time>2011-04-24T10:58:52Z</time>
      </trkpt>
      <trkpt lat="43.54848" lon="1.45572">
        <ele>234.218384</ele>
        <time>2011-04-24T10:59:00Z</time>
      </trkpt>
      <trkpt lat="43.54838" lon="1.45585">
        <ele>234.699097</ele>
        <time>2011-04-24T10:59:03Z</time>
      </trkpt>
      <trkpt lat="43.548" lon="1.45645">
        <ele>235.660278</ele>
        <time>2011-04-24T10:59:15Z</time>
      </trkpt>
      <trkpt lat="43.54793" lon="1.45654">
        <ele>235.660278</ele>
        <time>2011-04-24T10:59:17Z</time>
      </trkpt>
      <trkpt lat="43.54767" lon="1.45657">
        <ele>234.699097</ele>
        <time>2011-04-24T10:59:22Z</time>
      </trkpt>
      <trkpt lat="43.54751" lon="1.45641">
        <ele>234.699097</ele>
        <time>2011-04-24T10:59:25Z</time>
      </trkpt>
      <trkpt lat="43.54726" lon="1.45631">
        <ele>233.737671</ele>
        <time>2011-04-24T10:59:29Z</time>
      </trkpt>
      <trkpt lat="43.54578" lon="1.4562">
        <ele>232.295776</ele>
        <time>2011-04-24T10:59:51Z</time>
      </trkpt>
      <trkpt lat="43.54571" lon="1.45619">
        <ele>231.814941</ele>
        <time>2011-04-24T10:59:52Z</time>
      </trkpt>
      <trkpt lat="43.54552" lon="1.45613">
        <ele>230.373047</ele>
        <time>2011-04-24T10:59:55Z</time>
      </trkpt>
      <trkpt lat="43.54532" lon="1.45612">
        <ele>230.373047</ele>
        <time>2011-04-24T10:59:58Z</time>
      </trkpt>
      <trkpt lat="43.54512" lon="1.45609">
        <ele>229.411743</ele>
        <time>2011-04-24T11:00:01Z</time>
      </trkpt>
      <trkpt lat="43.54468" lon="1.45594">
        <ele>227.489136</ele>
        <time>2011-04-24T11:00:07Z</time>
      </trkpt>
      <trkpt lat="43.54442" lon="1.45575">
        <ele>226.047119</ele>
        <time>2011-04-24T11:00:11Z</time>
      </trkpt>
      <trkpt lat="43.54414" lon="1.45589">
        <ele>225.566528</ele>
        <time>2011-04-24T11:00:16Z</time>
      </trkpt>
      <trkpt lat="43.54327" lon="1.45732">
        <ele>222.201782</ele>
        <time>2011-04-24T11:00:36Z</time>
      </trkpt>
      <trkpt lat="43.54283" lon="1.458">
        <ele>221.240601</ele>
        <time>2011-04-24T11:00:46Z</time>
      </trkpt>
      <trkpt lat="43.54231" lon="1.45888">
        <ele>223.163208</ele>
        <time>2011-04-24T11:01:00Z</time>
      </trkpt>
      <trkpt lat="43.54206" lon="1.45945">
        <ele>224.605225</ele>
        <time>2011-04-24T11:01:09Z</time>
      </trkpt>
      <trkpt lat="43.54201" lon="1.45966">
        <ele>225.085938</ele>
        <time>2011-04-24T11:01:12Z</time>
      </trkpt>
      <trkpt lat="43.54189" lon="1.45996">
        <ele>224.605225</ele>
        <time>2011-04-24T11:01:17Z</time>
      </trkpt>
      <trkpt lat="43.54178" lon="1.46018">
        <ele>224.124512</ele>
        <time>2011-04-24T11:01:21Z</time>
      </trkpt>
      <trkpt lat="43.54172" lon="1.46029">
        <ele>223.643799</ele>
        <time>2011-04-24T11:01:23Z</time>
      </trkpt>
      <trkpt lat="43.54158" lon="1.46064">
        <ele>223.643799</ele>
        <time>2011-04-24T11:01:28Z</time>
      </trkpt>
      <trkpt lat="43.54142" lon="1.46094">
        <ele>222.201782</ele>
        <time>2011-04-24T11:01:33Z</time>
      </trkpt>
      <trkpt lat="43.54121" lon="1.46138">
        <ele>221.240601</ele>
        <time>2011-04-24T11:01:39Z</time>
      </trkpt>
      <trkpt lat="43.54105" lon="1.46164">
        <ele>220.759888</ele>
        <time>2011-04-24T11:01:43Z</time>
      </trkpt>
      <trkpt lat="43.54068" lon="1.46234">
        <ele>219.317993</ele>
        <time>2011-04-24T11:01:53Z</time>
      </trkpt>
      <trkpt lat="43.54046" lon="1.46274">
        <ele>217.395386</ele>
        <time>2011-04-24T11:01:58Z</time>
      </trkpt>
      <trkpt lat="43.54024" lon="1.46298">
        <ele>217.395386</ele>
        <time>2011-04-24T11:02:02Z</time>
      </trkpt>
      <trkpt lat="43.54013" lon="1.4631">
        <ele>216.43396</ele>
        <time>2011-04-24T11:02:04Z</time>
      </trkpt>
      <trkpt lat="43.53941" lon="1.46416">
        <ele>213.069336</ele>
        <time>2011-04-24T11:02:19Z</time>
      </trkpt>
      <trkpt lat="43.53878" lon="1.46527">
        <ele>210.185425</ele>
        <time>2011-04-24T11:02:33Z</time>
      </trkpt>
      <trkpt lat="43.53827" lon="1.46606">
        <ele>207.301392</ele>
        <time>2011-04-24T11:02:43Z</time>
      </trkpt>
      <trkpt lat="43.53758" lon="1.46702">
        <ele>203.93689</ele>
        <time>2011-04-24T11:02:55Z</time>
      </trkpt>
      <trkpt lat="43.53724" lon="1.46752">
        <ele>202.494873</ele>
        <time>2011-04-24T11:03:01Z</time>
      </trkpt>
      <trkpt lat="43.5368" lon="1.46833">
        <ele>200.572266</ele>
        <time>2011-04-24T11:03:11Z</time>
      </trkpt>
      <trkpt lat="43.53666" lon="1.46861">
        <ele>200.572266</ele>
        <time>2011-04-24T11:03:15Z</time>
      </trkpt>
      <trkpt lat="43.53658" lon="1.46875">
        <ele>200.572266</ele>
        <time>2011-04-24T11:03:17Z</time>
      </trkpt>
      <trkpt lat="43.53652" lon="1.46889">
        <ele>198.649536</ele>
        <time>2011-04-24T11:03:20Z</time>
      </trkpt>
      <trkpt lat="43.53644" lon="1.46898">
        <ele>198.168945</ele>
        <time>2011-04-24T11:03:24Z</time>
      </trkpt>
      <trkpt lat="43.53648" lon="1.46946">
        <ele>197.688232</ele>
        <time>2011-04-24T11:03:31Z</time>
      </trkpt>
      <trkpt lat="43.53666" lon="1.4696">
        <ele>196.726929</ele>
        <time>2011-04-24T11:03:34Z</time>
      </trkpt>
      <trkpt lat="43.53689" lon="1.4697">
        <ele>195.765625</ele>
        <time>2011-04-24T11:03:38Z</time>
      </trkpt>
      <trkpt lat="43.5373" lon="1.4703">
        <ele>194.32373</ele>
        <time>2011-04-24T11:03:48Z</time>
      </trkpt>
      <trkpt lat="43.53727" lon="1.4705">
        <ele>193.362305</ele>
        <time>2011-04-24T11:03:50Z</time>
      </trkpt>
      <trkpt lat="43.53723" lon="1.47073">
        <ele>192.401123</ele>
        <time>2011-04-24T11:03:52Z</time>
      </trkpt>
      <trkpt lat="43.53715" lon="1.4718">
        <ele>188.075073</ele>
        <time>2011-04-24T11:04:01Z</time>
      </trkpt>
      <trkpt lat="43.53716" lon="1.47204">
        <ele>187.11377</ele>
        <time>2011-04-24T11:04:03Z</time>
      </trkpt>
      <trkpt lat="43.5372" lon="1.47251">
        <ele>184.710571</ele>
        <time>2011-04-24T11:04:08Z</time>
      </trkpt>
      <trkpt lat="43.53712" lon="1.47259">
        <ele>183.749023</ele>
        <time>2011-04-24T11:04:10Z</time>
      </trkpt>
      <trkpt lat="43.53702" lon="1.47262">
        <ele>184.229858</ele>
        <time>2011-04-24T11:04:12Z</time>
      </trkpt>
      <trkpt lat="43.53692" lon="1.47262">
        <ele>185.191162</ele>
        <time>2011-04-24T11:04:14Z</time>
      </trkpt>
      <trkpt lat="43.53663" lon="1.47255">
        <ele>186.633179</ele>
        <time>2011-04-24T11:04:19Z</time>
      </trkpt>
      <trkpt lat="43.5365" lon="1.47251">
        <ele>187.59436</ele>
        <time>2011-04-24T11:04:22Z</time>
      </trkpt>
      <trkpt lat="43.53634" lon="1.47237">
        <ele>189.516968</ele>
        <time>2011-04-24T11:04:26Z</time>
      </trkpt>
      <trkpt lat="43.53573" lon="1.47176">
        <ele>192.401123</ele>
        <time>2011-04-24T11:04:44Z</time>
      </trkpt>
      <trkpt lat="43.53547" lon="1.47142">
        <ele>195.765625</ele>
        <time>2011-04-24T11:04:53Z</time>
      </trkpt>
      <trkpt lat="43.53509" lon="1.47095">
        <ele>198.649536</ele>
        <time>2011-04-24T11:05:06Z</time>
      </trkpt>
      <trkpt lat="43.53478" lon="1.47034">
        <ele>201.533569</ele>
        <time>2011-04-24T11:05:20Z</time>
      </trkpt>
      <trkpt lat="43.53446" lon="1.47004">
        <ele>203.93689</ele>
        <time>2011-04-24T11:05:30Z</time>
      </trkpt>
      <trkpt lat="43.53443" lon="1.47001">
        <ele>203.93689</ele>
        <time>2011-04-24T11:05:31Z</time>
      </trkpt>
      <trkpt lat="43.53437" lon="1.46994">
        <ele>204.41748</ele>
        <time>2011-04-24T11:05:33Z</time>
      </trkpt>
      <trkpt lat="43.53412" lon="1.46963">
        <ele>205.378784</ele>
        <time>2011-04-24T11:05:41Z</time>
      </trkpt>
      <trkpt lat="43.53359" lon="1.46926">
        <ele>204.41748</ele>
        <time>2011-04-24T11:05:52Z</time>
      </trkpt>
      <trkpt lat="43.53297" lon="1.46887">
        <ele>201.052856</ele>
        <time>2011-04-24T11:06:01Z</time>
      </trkpt>
      <trkpt lat="43.53278" lon="1.46868">
        <ele>199.130127</ele>
        <time>2011-04-24T11:06:04Z</time>
      </trkpt>
      <trkpt lat="43.53253" lon="1.46835">
        <ele>196.246338</ele>
        <time>2011-04-24T11:06:08Z</time>
      </trkpt>
      <trkpt lat="43.53248" lon="1.46824">
        <ele>195.765625</ele>
        <time>2011-04-24T11:06:09Z</time>
      </trkpt>
      <trkpt lat="43.53237" lon="1.46801">
        <ele>194.804321</ele>
        <time>2011-04-24T11:06:11Z</time>
      </trkpt>
      <trkpt lat="43.53226" lon="1.4676">
        <ele>192.401123</ele>
        <time>2011-04-24T11:06:14Z</time>
      </trkpt>
      <trkpt lat="43.53221" lon="1.46668">
        <ele>188.555786</ele>
        <time>2011-04-24T11:06:20Z</time>
      </trkpt>
      <trkpt lat="43.53226" lon="1.46577">
        <ele>184.710571</ele>
        <time>2011-04-24T11:06:26Z</time>
      </trkpt>
      <trkpt lat="43.53226" lon="1.46548">
        <ele>183.749023</ele>
        <time>2011-04-24T11:06:28Z</time>
      </trkpt>
      <trkpt lat="43.53224" lon="1.46449">
        <ele>181.826416</ele>
        <time>2011-04-24T11:06:35Z</time>
      </trkpt>
      <trkpt lat="43.53228" lon="1.4641">
        <ele>179.903809</ele>
        <time>2011-04-24T11:06:38Z</time>
      </trkpt>
      <trkpt lat="43.53232" lon="1.46397">
        <ele>179.903809</ele>
        <time>2011-04-24T11:06:39Z</time>
      </trkpt>
      <trkpt lat="43.53247" lon="1.46335">
        <ele>179.903809</ele>
        <time>2011-04-24T11:06:44Z</time>
      </trkpt>
      <trkpt lat="43.53253" lon="1.46273">
        <ele>178.461914</ele>
        <time>2011-04-24T11:06:49Z</time>
      </trkpt>
      <trkpt lat="43.53269" lon="1.46124">
        <ele>175.09729</ele>
        <time>2011-04-24T11:07:00Z</time>
      </trkpt>
      <trkpt lat="43.5327" lon="1.46111">
        <ele>174.616577</ele>
        <time>2011-04-24T11:07:01Z</time>
      </trkpt>
      <trkpt lat="43.53305" lon="1.45975">
        <ele>173.174683</ele>
        <time>2011-04-24T11:07:12Z</time>
      </trkpt>
      <trkpt lat="43.53377" lon="1.45796">
        <ele>171.252075</ele>
        <time>2011-04-24T11:07:30Z</time>
      </trkpt>
      <trkpt lat="43.53404" lon="1.45745">
        <ele>170.290649</ele>
        <time>2011-04-24T11:07:36Z</time>
      </trkpt>
      <trkpt lat="43.53421" lon="1.45711">
        <ele>170.290649</ele>
        <time>2011-04-24T11:07:40Z</time>
      </trkpt>
      <trkpt lat="43.53494" lon="1.45601">
        <ele>171.252075</ele>
        <time>2011-04-24T11:07:55Z</time>
      </trkpt>
      <trkpt lat="43.53499" lon="1.45594">
        <ele>171.252075</ele>
        <time>2011-04-24T11:07:56Z</time>
      </trkpt>
      <trkpt lat="43.53529" lon="1.45561">
        <ele>171.732666</ele>
        <time>2011-04-24T11:08:02Z</time>
      </trkpt>
      <trkpt lat="43.53547" lon="1.45547">
        <ele>173.174683</ele>
        <time>2011-04-24T11:08:06Z</time>
      </trkpt>
      <trkpt lat="43.5356" lon="1.45542">
        <ele>174.616577</ele>
        <time>2011-04-24T11:08:09Z</time>
      </trkpt>
      <trkpt lat="43.53596" lon="1.45512">
        <ele>177.981201</ele>
        <time>2011-04-24T11:08:21Z</time>
      </trkpt>
      <trkpt lat="43.53623" lon="1.45491">
        <ele>180.865234</ele>
        <time>2011-04-24T11:08:32Z</time>
      </trkpt>
      <trkpt lat="43.53654" lon="1.45481">
        <ele>183.749023</ele>
        <time>2011-04-24T11:08:43Z</time>
      </trkpt>
      <trkpt lat="43.53679" lon="1.45476">
        <ele>187.11377</ele>
        <time>2011-04-24T11:08:53Z</time>
      </trkpt>
      <trkpt lat="43.537" lon="1.45469">
        <ele>189.997681</ele>
        <time>2011-04-24T11:09:03Z</time>
      </trkpt>
      <trkpt lat="43.53712" lon="1.45462">
        <ele>191.920288</ele>
        <time>2011-04-24T11:09:08Z</time>
      </trkpt>
      <trkpt lat="43.5374" lon="1.45446">
        <ele>195.284912</ele>
        <time>2011-04-24T11:09:19Z</time>
      </trkpt>
      <trkpt lat="43.53767" lon="1.45428">
        <ele>198.168945</ele>
        <time>2011-04-24T11:09:30Z</time>
      </trkpt>
      <trkpt lat="43.53804" lon="1.45396">
        <ele>200.572266</ele>
        <time>2011-04-24T11:09:44Z</time>
      </trkpt>
      <trkpt lat="43.53844" lon="1.45362">
        <ele>201.052856</ele>
        <time>2011-04-24T11:09:56Z</time>
      </trkpt>
      <trkpt lat="43.5391" lon="1.45283">
        <ele>201.533569</ele>
        <time>2011-04-24T11:10:12Z</time>
      </trkpt>
      <trkpt lat="43.53949" lon="1.45186">
        <ele>203.93689</ele>
        <time>2011-04-24T11:10:28Z</time>
      </trkpt>
      <trkpt lat="43.53968" lon="1.4515">
        <ele>206.820679</ele>
        <time>2011-04-24T11:10:35Z</time>
      </trkpt>
      <trkpt lat="43.53986" lon="1.4512">
        <ele>209.224121</ele>
        <time>2011-04-24T11:10:41Z</time>
      </trkpt>
      <trkpt lat="43.54014" lon="1.45083">
        <ele>212.588623</ele>
        <time>2011-04-24T11:10:49Z</time>
      </trkpt>
      <trkpt lat="43.54047" lon="1.45058">
        <ele>215.472656</ele>
        <time>2011-04-24T11:10:57Z</time>
      </trkpt>
      <trkpt lat="43.54055" lon="1.45054">
        <ele>215.953247</ele>
        <time>2011-04-24T11:10:59Z</time>
      </trkpt>
      <trkpt lat="43.54094" lon="1.4504">
        <ele>219.317993</ele>
        <time>2011-04-24T11:11:11Z</time>
      </trkpt>
      <trkpt lat="43.54133" lon="1.45028">
        <ele>222.682495</ele>
        <time>2011-04-24T11:11:25Z</time>
      </trkpt>
      <trkpt lat="43.54172" lon="1.45012">
        <ele>226.047119</ele>
        <time>2011-04-24T11:11:37Z</time>
      </trkpt>
      <trkpt lat="43.54199" lon="1.45004">
        <ele>229.892334</ele>
        <time>2011-04-24T11:11:46Z</time>
      </trkpt>
      <trkpt lat="43.54202" lon="1.45003">
        <ele>229.892334</ele>
        <time>2011-04-24T11:11:47Z</time>
      </trkpt>
      <trkpt lat="43.54215" lon="1.45001">
        <ele>231.334351</ele>
        <time>2011-04-24T11:11:52Z</time>
      </trkpt>
      <trkpt lat="43.54244" lon="1.44997">
        <ele>230.85376</ele>
        <time>2011-04-24T11:11:59Z</time>
      </trkpt>
      <trkpt lat="43.54278" lon="1.45019">
        <ele>229.411743</ele>
        <time>2011-04-24T11:12:05Z</time>
      </trkpt>
      <trkpt lat="43.54317" lon="1.45067">
        <ele>225.566528</ele>
        <time>2011-04-24T11:12:11Z</time>
      </trkpt>
      <trkpt lat="43.54326" lon="1.45075">
        <ele>225.085938</ele>
        <time>2011-04-24T11:12:12Z</time>
      </trkpt>
      <trkpt lat="43.54376" lon="1.45107">
        <ele>222.201782</ele>
        <time>2011-04-24T11:12:18Z</time>
      </trkpt>
      <trkpt lat="43.54467" lon="1.4515">
        <ele>223.643799</ele>
        <time>2011-04-24T11:12:31Z</time>
      </trkpt>
      <trkpt lat="43.54579" lon="1.45221">
        <ele>224.124512</ele>
        <time>2011-04-24T11:12:52Z</time>
      </trkpt>
      <trkpt lat="43.5459" lon="1.45231">
        <ele>223.643799</ele>
        <time>2011-04-24T11:12:54Z</time>
      </trkpt>
      <trkpt lat="43.54616" lon="1.45276">
        <ele>222.682495</ele>
        <time>2011-04-24T11:13:00Z</time>
      </trkpt>
      <trkpt lat="43.54619" lon="1.45292">
        <ele>223.163208</ele>
        <time>2011-04-24T11:13:02Z</time>
      </trkpt>
      <trkpt lat="43.54642" lon="1.45308">
        <ele>221.721191</ele>
        <time>2011-04-24T11:13:07Z</time>
      </trkpt>
      <trkpt lat="43.54698" lon="1.45314">
        <ele>222.682495</ele>
        <time>2011-04-24T11:13:16Z</time>
      </trkpt>
      <trkpt lat="43.54754" lon="1.45342">
        <ele>225.566528</ele>
        <time>2011-04-24T11:13:26Z</time>
      </trkpt>
      <trkpt lat="43.54792" lon="1.45363">
        <ele>228.450439</ele>
        <time>2011-04-24T11:13:34Z</time>
      </trkpt>
      <trkpt lat="43.54819" lon="1.45378">
        <ele>229.892334</ele>
        <time>2011-04-24T11:13:41Z</time>
      </trkpt>
      <trkpt lat="43.54833" lon="1.45376">
        <ele>229.411743</ele>
        <time>2011-04-24T11:13:44Z</time>
      </trkpt>
      <trkpt lat="43.54844" lon="1.45352">
        <ele>228.931152</ele>
        <time>2011-04-24T11:13:48Z</time>
      </trkpt>
      <trkpt lat="43.54851" lon="1.4533">
        <ele>228.450439</ele>
        <time>2011-04-24T11:13:51Z</time>
      </trkpt>
      <trkpt lat="43.54851" lon="1.45284">
        <ele>227.008545</ele>
        <time>2011-04-24T11:13:56Z</time>
      </trkpt>
      <trkpt lat="43.54861" lon="1.45246">
        <ele>226.527832</ele>
        <time>2011-04-24T11:14:00Z</time>
      </trkpt>
      <trkpt lat="43.54929" lon="1.45151">
        <ele>225.566528</ele>
        <time>2011-04-24T11:14:13Z</time>
      </trkpt>
      <trkpt lat="43.54946" lon="1.45079">
        <ele>227.489136</ele>
        <time>2011-04-24T11:14:21Z</time>
      </trkpt>
      <trkpt lat="43.54956" lon="1.45018">
        <ele>227.969727</ele>
        <time>2011-04-24T11:14:28Z</time>
      </trkpt>
      <trkpt lat="43.55" lon="1.44873">
        <ele>227.008545</ele>
        <time>2011-04-24T11:14:44Z</time>
      </trkpt>
      <trkpt lat="43.5503" lon="1.44775">
        <ele>223.163208</ele>
        <time>2011-04-24T11:14:54Z</time>
      </trkpt>
      <trkpt lat="43.55038" lon="1.44757">
        <ele>222.682495</ele>
        <time>2011-04-24T11:14:56Z</time>
      </trkpt>
      <trkpt lat="43.55049" lon="1.44734">
        <ele>222.201782</ele>
        <time>2011-04-24T11:14:59Z</time>
      </trkpt>
      <trkpt lat="43.55075" lon="1.44741">
        <ele>222.682495</ele>
        <time>2011-04-24T11:15:04Z</time>
      </trkpt>
      <trkpt lat="43.55147" lon="1.44813">
        <ele>224.124512</ele>
        <time>2011-04-24T11:15:19Z</time>
      </trkpt>
      <trkpt lat="43.55178" lon="1.44845">
        <ele>222.682495</ele>
        <time>2011-04-24T11:15:25Z</time>
      </trkpt>
      <trkpt lat="43.5522" lon="1.44891">
        <ele>219.798584</ele>
        <time>2011-04-24T11:15:32Z</time>
      </trkpt>
      <trkpt lat="43.55245" lon="1.44924">
        <ele>216.43396</ele>
        <time>2011-04-24T11:15:36Z</time>
      </trkpt>
      <trkpt lat="43.55251" lon="1.44933">
        <ele>216.43396</ele>
        <time>2011-04-24T11:15:37Z</time>
      </trkpt>
      <trkpt lat="43.55279" lon="1.44984">
        <ele>214.03064</ele>
        <time>2011-04-24T11:15:42Z</time>
      </trkpt>
      <trkpt lat="43.55288" lon="1.45003">
        <ele>211.146729</ele>
        <time>2011-04-24T11:15:44Z</time>
      </trkpt>
      <trkpt lat="43.55284" lon="1.45035">
        <ele>209.704834</ele>
        <time>2011-04-24T11:15:51Z</time>
      </trkpt>
      <trkpt lat="43.55281" lon="1.45039">
        <ele>209.704834</ele>
        <time>2011-04-24T11:15:52Z</time>
      </trkpt>
      <trkpt lat="43.55231" lon="1.45081">
        <ele>209.704834</ele>
        <time>2011-04-24T11:16:04Z</time>
      </trkpt>
      <trkpt lat="43.55219" lon="1.45089">
        <ele>210.185425</ele>
        <time>2011-04-24T11:16:07Z</time>
      </trkpt>
      <trkpt lat="43.55198" lon="1.45108">
        <ele>210.666016</ele>
        <time>2011-04-24T11:16:12Z</time>
      </trkpt>
      <trkpt lat="43.55181" lon="1.45134">
        <ele>211.627441</ele>
        <time>2011-04-24T11:16:18Z</time>
      </trkpt>
      <trkpt lat="43.55173" lon="1.45147">
        <ele>212.108032</ele>
        <time>2011-04-24T11:16:21Z</time>
      </trkpt>
      <trkpt lat="43.55129" lon="1.45183">
        <ele>214.03064</ele>
        <time>2011-04-24T11:16:33Z</time>
      </trkpt>
      <trkpt lat="43.551" lon="1.45201">
        <ele>215.472656</ele>
        <time>2011-04-24T11:16:44Z</time>
      </trkpt>
      <trkpt lat="43.55077" lon="1.45181">
        <ele>218.356567</ele>
        <time>2011-04-24T11:16:53Z</time>
      </trkpt>
      <trkpt lat="43.55068" lon="1.45171">
        <ele>219.798584</ele>
        <time>2011-04-24T11:16:56Z</time>
      </trkpt>
      <trkpt lat="43.55051" lon="1.45166">
        <ele>220.279175</ele>
        <time>2011-04-24T11:17:01Z</time>
      </trkpt>
      <trkpt lat="43.55014" lon="1.45182">
        <ele>222.682495</ele>
        <time>2011-04-24T11:17:10Z</time>
      </trkpt>
      <trkpt lat="43.54979" lon="1.45194">
        <ele>226.047119</ele>
        <time>2011-04-24T11:17:22Z</time>
      </trkpt>
      <trkpt lat="43.54961" lon="1.45173">
        <ele>226.527832</ele>
        <time>2011-04-24T11:17:30Z</time>
      </trkpt>
      <trkpt lat="43.54984" lon="1.45135">
        <ele>227.489136</ele>
        <time>2011-04-24T11:17:41Z</time>
      </trkpt>
      <trkpt lat="43.55027" lon="1.45071">
        <ele>227.969727</ele>
        <time>2011-04-24T11:17:58Z</time>
      </trkpt>
    </trkseg>
  </trk>
</gpx>